sensor_id;sensor_type;location;lat;lon;timestamp;temperature;humidity
66936;DHT22;53847;51.984;5.896;2022-08-19T00:01:29;20.60;76.70
66936;DHT22;53847;51.984;5.896;2022-08-19T00:04:00;20.50;76.90
66936;DHT22;53847;51.984;5.896;2022-08-19T00:06:29;20.50;76.90
66936;DHT22;53847;51.984;5.896;2022-08-19T00:08:56;20.50;77.10
66936;DHT22;53847;51.984;5.896;2022-08-19T00:11:23;20.70;77.30
66936;DHT22;53847;51.984;5.896;2022-08-19T00:13:49;20.50;76.90
66936;DHT22;53847;51.984;5.896;2022-08-19T00:16:17;20.40;77.00
66936;DHT22;53847;51.984;5.896;2022-08-19T00:18:43;20.40;76.90
66936;DHT22;53847;51.984;5.896;2022-08-19T00:21:09;20.40;76.70
66936;DHT22;53847;51.984;5.896;2022-08-19T00:23:36;20.40;76.80
66936;DHT22;53847;51.984;5.896;2022-08-19T00:26:04;20.50;76.90
66936;DHT22;53847;51.984;5.896;2022-08-19T00:28:31;20.30;77.30
66936;DHT22;53847;51.984;5.896;2022-08-19T00:30:58;20.50;77.60
66936;DHT22;53847;51.984;5.896;2022-08-19T00:33:25;20.50;77.50
66936;DHT22;53847;51.984;5.896;2022-08-19T00:35:51;20.10;77.30
66936;DHT22;53847;51.984;5.896;2022-08-19T00:38:17;20.30;77.40
66936;DHT22;53847;51.984;5.896;2022-08-19T00:40:44;20.10;77.10
66936;DHT22;53847;51.984;5.896;2022-08-19T00:43:11;20.20;77.30
66936;DHT22;53847;51.984;5.896;2022-08-19T00:45:37;20.40;77.50
66936;DHT22;53847;51.984;5.896;2022-08-19T00:48:03;20.20;77.70
66936;DHT22;53847;51.984;5.896;2022-08-19T00:50:30;20.10;78.00
66936;DHT22;53847;51.984;5.896;2022-08-19T00:52:56;20.20;78.20
66936;DHT22;53847;51.984;5.896;2022-08-19T00:55:25;20.20;78.20
66936;DHT22;53847;51.984;5.896;2022-08-19T00:57:56;20.00;77.80
66936;DHT22;53847;51.984;5.896;2022-08-19T01:00:25;20.70;78.30
66936;DHT22;53847;51.984;5.896;2022-08-19T01:02:52;20.20;78.10
66936;DHT22;53847;51.984;5.896;2022-08-19T01:05:27;20.20;78.50
66936;DHT22;53847;51.984;5.896;2022-08-19T01:07:55;20.10;78.30
66936;DHT22;53847;51.984;5.896;2022-08-19T01:10:25;20.00;78.10
66936;DHT22;53847;51.984;5.896;2022-08-19T01:12:53;20.00;78.10
66936;DHT22;53847;51.984;5.896;2022-08-19T01:15:23;20.10;78.40
66936;DHT22;53847;51.984;5.896;2022-08-19T01:17:51;20.10;78.30
66936;DHT22;53847;51.984;5.896;2022-08-19T01:20:22;19.60;78.40
66936;DHT22;53847;51.984;5.896;2022-08-19T01:22:56;19.90;78.70
66936;DHT22;53847;51.984;5.896;2022-08-19T01:25:28;19.90;78.80
66936;DHT22;53847;51.984;5.896;2022-08-19T01:27:55;19.60;78.50
66936;DHT22;53847;51.984;5.896;2022-08-19T01:30:25;20.00;79.00
66936;DHT22;53847;51.984;5.896;2022-08-19T01:32:53;19.60;78.90
66936;DHT22;53847;51.984;5.896;2022-08-19T01:35:20;20.10;79.40
66936;DHT22;53847;51.984;5.896;2022-08-19T01:37:57;20.00;79.50
66936;DHT22;53847;51.984;5.896;2022-08-19T01:40:28;19.70;79.30
66936;DHT22;53847;51.984;5.896;2022-08-19T01:42:55;19.30;79.20
66936;DHT22;53847;51.984;5.896;2022-08-19T01:45:23;19.60;79.40
66936;DHT22;53847;51.984;5.896;2022-08-19T01:47:50;19.70;79.60
66936;DHT22;53847;51.984;5.896;2022-08-19T01:50:16;19.30;79.50
66936;DHT22;53847;51.984;5.896;2022-08-19T01:52:43;19.50;79.70
66936;DHT22;53847;51.984;5.896;2022-08-19T01:55:15;19.70;79.80
66936;DHT22;53847;51.984;5.896;2022-08-19T01:57:48;19.90;79.80
66936;DHT22;53847;51.984;5.896;2022-08-19T02:00:17;19.70;79.70
66936;DHT22;53847;51.984;5.896;2022-08-19T02:02:47;19.80;79.60
66936;DHT22;53847;51.984;5.896;2022-08-19T02:05:13;19.70;80.40
66936;DHT22;53847;51.984;5.896;2022-08-19T02:07:40;19.80;79.90
66936;DHT22;53847;51.984;5.896;2022-08-19T02:10:09;19.70;79.80
66936;DHT22;53847;51.984;5.896;2022-08-19T02:12:35;19.80;79.90
66936;DHT22;53847;51.984;5.896;2022-08-19T02:15:02;19.90;80.00
66936;DHT22;53847;51.984;5.896;2022-08-19T02:17:29;19.80;79.90
66936;DHT22;53847;51.984;5.896;2022-08-19T02:19:56;20.20;80.00
66936;DHT22;53847;51.984;5.896;2022-08-19T02:22:23;19.90;79.90
66936;DHT22;53847;51.984;5.896;2022-08-19T02:24:49;19.80;79.70
66936;DHT22;53847;51.984;5.896;2022-08-19T02:27:15;19.80;79.50
66936;DHT22;53847;51.984;5.896;2022-08-19T02:29:42;20.20;79.70
66936;DHT22;53847;51.984;5.896;2022-08-19T02:32:08;19.90;79.40
66936;DHT22;53847;51.984;5.896;2022-08-19T02:34:35;19.90;79.40
66936;DHT22;53847;51.984;5.896;2022-08-19T02:37:01;19.50;79.30
66936;DHT22;53847;51.984;5.896;2022-08-19T02:39:27;20.20;79.60
66936;DHT22;53847;51.984;5.896;2022-08-19T02:41:53;19.70;79.20
66936;DHT22;53847;51.984;5.896;2022-08-19T02:44:19;20.00;79.20
66936;DHT22;53847;51.984;5.896;2022-08-19T02:46:47;20.10;79.30
66936;DHT22;53847;51.984;5.896;2022-08-19T02:49:14;19.80;79.00
66936;DHT22;53847;51.984;5.896;2022-08-19T02:51:42;20.00;79.10
66936;DHT22;53847;51.984;5.896;2022-08-19T02:54:10;19.60;78.80
66936;DHT22;53847;51.984;5.896;2022-08-19T02:56:38;19.80;79.00
66936;DHT22;53847;51.984;5.896;2022-08-19T02:59:06;19.30;78.80
66936;DHT22;53847;51.984;5.896;2022-08-19T03:01:32;19.70;79.10
66936;DHT22;53847;51.984;5.896;2022-08-19T03:04:01;19.40;79.10
66936;DHT22;53847;51.984;5.896;2022-08-19T03:06:28;19.60;79.10
66936;DHT22;53847;51.984;5.896;2022-08-19T03:08:55;19.80;79.20
66936;DHT22;53847;51.984;5.896;2022-08-19T03:11:27;19.90;79.40
66936;DHT22;53847;51.984;5.896;2022-08-19T03:13:53;19.60;79.40
66936;DHT22;53847;51.984;5.896;2022-08-19T03:16:24;19.30;79.20
66936;DHT22;53847;51.984;5.896;2022-08-19T03:18:51;19.50;79.70
66936;DHT22;53847;51.984;5.896;2022-08-19T03:21:23;19.80;79.90
66936;DHT22;53847;51.984;5.896;2022-08-19T03:23:50;19.50;79.80
66936;DHT22;53847;51.984;5.896;2022-08-19T03:26:19;19.40;79.80
66936;DHT22;53847;51.984;5.896;2022-08-19T03:28:45;19.50;79.80
66936;DHT22;53847;51.984;5.896;2022-08-19T03:31:13;19.10;79.50
66936;DHT22;53847;51.984;5.896;2022-08-19T03:33:40;19.40;79.90
66936;DHT22;53847;51.984;5.896;2022-08-19T03:36:08;19.40;79.80
66936;DHT22;53847;51.984;5.896;2022-08-19T03:39:00;19.50;80.10
66936;DHT22;53847;51.984;5.896;2022-08-19T03:41:31;19.80;80.20
66936;DHT22;53847;51.984;5.896;2022-08-19T03:43:58;19.10;79.80
66936;DHT22;53847;51.984;5.896;2022-08-19T03:46:30;19.80;80.50
66936;DHT22;53847;51.984;5.896;2022-08-19T03:48:58;19.40;80.00
66936;DHT22;53847;51.984;5.896;2022-08-19T03:51:29;19.10;79.60
66936;DHT22;53847;51.984;5.896;2022-08-19T03:53:57;19.30;79.60
66936;DHT22;53847;51.984;5.896;2022-08-19T03:56:24;19.30;79.70
66936;DHT22;53847;51.984;5.896;2022-08-19T03:58:51;19.60;80.30
66936;DHT22;53847;51.984;5.896;2022-08-19T04:01:20;19.30;80.40
66936;DHT22;53847;51.984;5.896;2022-08-19T04:03:47;19.30;80.50
66936;DHT22;53847;51.984;5.896;2022-08-19T04:06:18;19.20;80.40
66936;DHT22;53847;51.984;5.896;2022-08-19T04:08:46;19.50;80.50
66936;DHT22;53847;51.984;5.896;2022-08-19T04:11:16;19.30;80.40
66936;DHT22;53847;51.984;5.896;2022-08-19T04:13:42;19.50;80.70
66936;DHT22;53847;51.984;5.896;2022-08-19T04:16:09;19.00;80.40
66936;DHT22;53847;51.984;5.896;2022-08-19T04:18:36;19.30;80.60
66936;DHT22;53847;51.984;5.896;2022-08-19T04:21:04;19.60;81.00
66936;DHT22;53847;51.984;5.896;2022-08-19T04:23:31;18.80;80.70
66936;DHT22;53847;51.984;5.896;2022-08-19T04:25:57;18.70;81.00
66936;DHT22;53847;51.984;5.896;2022-08-19T04:28:24;18.90;81.10
66936;DHT22;53847;51.984;5.896;2022-08-19T04:30:52;18.90;81.30
66936;DHT22;53847;51.984;5.896;2022-08-19T04:33:22;19.00;81.50
66936;DHT22;53847;51.984;5.896;2022-08-19T04:35:50;19.00;81.70
66936;DHT22;53847;51.984;5.896;2022-08-19T04:38:18;18.70;81.60
66936;DHT22;53847;51.984;5.896;2022-08-19T04:40:47;18.60;81.80
66936;DHT22;53847;51.984;5.896;2022-08-19T04:43:14;18.60;81.90
66936;DHT22;53847;51.984;5.896;2022-08-19T04:45:42;18.90;81.90
66936;DHT22;53847;51.984;5.896;2022-08-19T04:48:08;19.30;81.90
66936;DHT22;53847;51.984;5.896;2022-08-19T04:50:34;18.70;81.40
66936;DHT22;53847;51.984;5.896;2022-08-19T04:53:02;19.00;81.60
66936;DHT22;53847;51.984;5.896;2022-08-19T04:55:28;18.90;81.80
66936;DHT22;53847;51.984;5.896;2022-08-19T04:57:56;18.80;81.90
66936;DHT22;53847;51.984;5.896;2022-08-19T05:00:23;18.80;81.90
66936;DHT22;53847;51.984;5.896;2022-08-19T05:02:49;18.70;82.10
66936;DHT22;53847;51.984;5.896;2022-08-19T05:05:15;18.90;82.20
66936;DHT22;53847;51.984;5.896;2022-08-19T05:07:41;18.60;81.80
66936;DHT22;53847;51.984;5.896;2022-08-19T05:10:08;18.90;81.80
66936;DHT22;53847;51.984;5.896;2022-08-19T05:12:34;19.10;81.70
66936;DHT22;53847;51.984;5.896;2022-08-19T05:15:04;19.10;81.60
66936;DHT22;53847;51.984;5.896;2022-08-19T05:17:30;19.10;81.60
66936;DHT22;53847;51.984;5.896;2022-08-19T05:19:57;19.40;81.80
66936;DHT22;53847;51.984;5.896;2022-08-19T05:22:23;19.00;81.60
66936;DHT22;53847;51.984;5.896;2022-08-19T05:24:49;19.10;81.70
66936;DHT22;53847;51.984;5.896;2022-08-19T05:27:15;19.10;81.90
66936;DHT22;53847;51.984;5.896;2022-08-19T05:29:41;19.10;82.20
66936;DHT22;53847;51.984;5.896;2022-08-19T05:32:07;19.10;82.40
66936;DHT22;53847;51.984;5.896;2022-08-19T05:34:34;19.10;82.50
66936;DHT22;53847;51.984;5.896;2022-08-19T05:37:02;18.80;82.50
66936;DHT22;53847;51.984;5.896;2022-08-19T05:39:30;18.70;82.70
66936;DHT22;53847;51.984;5.896;2022-08-19T05:42:00;19.10;83.10
66936;DHT22;53847;51.984;5.896;2022-08-19T05:44:29;19.10;83.30
66936;DHT22;53847;51.984;5.896;2022-08-19T05:46:55;19.10;83.60
66936;DHT22;53847;51.984;5.896;2022-08-19T05:49:22;19.60;83.90
66936;DHT22;53847;51.984;5.896;2022-08-19T05:51:49;19.20;84.00
66936;DHT22;53847;51.984;5.896;2022-08-19T05:54:15;19.70;84.50
66936;DHT22;53847;51.984;5.896;2022-08-19T05:56:41;19.30;84.90
66936;DHT22;53847;51.984;5.896;2022-08-19T05:59:09;19.50;86.20
66936;DHT22;53847;51.984;5.896;2022-08-19T06:01:38;20.00;87.60
66936;DHT22;53847;51.984;5.896;2022-08-19T06:04:05;20.10;87.60
66936;DHT22;53847;51.984;5.896;2022-08-19T06:06:31;20.60;87.60
66936;DHT22;53847;51.984;5.896;2022-08-19T06:08:57;20.80;86.70
66936;DHT22;53847;51.984;5.896;2022-08-19T06:13:53;21.50;85.40
66936;DHT22;53847;51.984;5.896;2022-08-19T06:16:20;21.50;84.40
66936;DHT22;53847;51.984;5.896;2022-08-19T06:18:46;22.10;84.20
66936;DHT22;53847;51.984;5.896;2022-08-19T06:21:12;22.30;83.00
66936;DHT22;53847;51.984;5.896;2022-08-19T06:23:38;22.70;81.80
66936;DHT22;53847;51.984;5.896;2022-08-19T06:26:05;22.70;81.90
66936;DHT22;53847;51.984;5.896;2022-08-19T06:28:31;23.00;80.10
66936;DHT22;53847;51.984;5.896;2022-08-19T06:30:57;23.20;80.00
66936;DHT22;53847;51.984;5.896;2022-08-19T06:33:23;23.50;79.00
66936;DHT22;53847;51.984;5.896;2022-08-19T06:35:49;23.60;77.60
66936;DHT22;53847;51.984;5.896;2022-08-19T06:38:15;23.90;77.60
66936;DHT22;53847;51.984;5.896;2022-08-19T06:40:41;24.10;77.80
66936;DHT22;53847;51.984;5.896;2022-08-19T06:43:07;24.20;75.70
66936;DHT22;53847;51.984;5.896;2022-08-19T06:45:33;24.50;75.10
66936;DHT22;53847;51.984;5.896;2022-08-19T06:47:59;24.80;73.70
66936;DHT22;53847;51.984;5.896;2022-08-19T06:50:25;24.10;72.30
66936;DHT22;53847;51.984;5.896;2022-08-19T06:52:51;24.00;71.30
66936;DHT22;53847;51.984;5.896;2022-08-19T06:55:17;24.00;71.60
66936;DHT22;53847;51.984;5.896;2022-08-19T06:57:43;23.80;72.00
66936;DHT22;53847;51.984;5.896;2022-08-19T07:00:10;23.50;72.30
66936;DHT22;53847;51.984;5.896;2022-08-19T07:02:36;23.40;72.80
66936;DHT22;53847;51.984;5.896;2022-08-19T07:05:02;23.20;73.10
66936;DHT22;53847;51.984;5.896;2022-08-19T07:07:28;23.10;73.30
66936;DHT22;53847;51.984;5.896;2022-08-19T07:09:54;22.60;73.40
66936;DHT22;53847;51.984;5.896;2022-08-19T07:12:20;22.80;73.80
66936;DHT22;53847;51.984;5.896;2022-08-19T07:14:47;22.60;74.30
66936;DHT22;53847;51.984;5.896;2022-08-19T07:17:13;22.40;74.60
66936;DHT22;53847;51.984;5.896;2022-08-19T07:19:42;22.30;74.70
66936;DHT22;53847;51.984;5.896;2022-08-19T07:22:09;22.30;75.20
66936;DHT22;53847;51.984;5.896;2022-08-19T07:24:37;21.70;75.20
66936;DHT22;53847;51.984;5.896;2022-08-19T07:27:04;22.30;76.20
66936;DHT22;53847;51.984;5.896;2022-08-19T07:29:32;22.10;76.40
66936;DHT22;53847;51.984;5.896;2022-08-19T07:32:00;22.00;76.60
66936;DHT22;53847;51.984;5.896;2022-08-19T07:34:28;22.40;76.90
66936;DHT22;53847;51.984;5.896;2022-08-19T07:36:55;21.60;76.50
66936;DHT22;53847;51.984;5.896;2022-08-19T07:39:28;21.90;76.70
66936;DHT22;53847;51.984;5.896;2022-08-19T07:41:55;21.90;76.90
66936;DHT22;53847;51.984;5.896;2022-08-19T07:44:21;22.50;77.30
66936;DHT22;53847;51.984;5.896;2022-08-19T07:46:50;22.00;76.80
66936;DHT22;53847;51.984;5.896;2022-08-19T07:49:17;22.60;77.10
66936;DHT22;53847;51.984;5.896;2022-08-19T07:51:45;22.10;76.80
66936;DHT22;53847;51.984;5.896;2022-08-19T07:54:12;22.10;76.90
66936;DHT22;53847;51.984;5.896;2022-08-19T07:56:38;22.20;77.10
66936;DHT22;53847;51.984;5.896;2022-08-19T07:59:04;22.40;77.00
66936;DHT22;53847;51.984;5.896;2022-08-19T08:01:30;22.70;76.90
66936;DHT22;53847;51.984;5.896;2022-08-19T08:03:57;22.40;76.50
66936;DHT22;53847;51.984;5.896;2022-08-19T08:06:24;22.90;76.60
66936;DHT22;53847;51.984;5.896;2022-08-19T08:08:50;22.50;76.30
66936;DHT22;53847;51.984;5.896;2022-08-19T08:11:20;22.80;76.50
66936;DHT22;53847;51.984;5.896;2022-08-19T08:13:47;22.70;76.70
66936;DHT22;53847;51.984;5.896;2022-08-19T08:16:13;22.90;76.60
66936;DHT22;53847;51.984;5.896;2022-08-19T08:18:39;22.40;75.30
66936;DHT22;53847;51.984;5.896;2022-08-19T08:21:05;23.10;75.00
66936;DHT22;53847;51.984;5.896;2022-08-19T08:23:31;23.10;74.40
66936;DHT22;53847;51.984;5.896;2022-08-19T08:26:04;23.10;74.40
66936;DHT22;53847;51.984;5.896;2022-08-19T08:28:30;23.10;73.60
66936;DHT22;53847;51.984;5.896;2022-08-19T08:30:57;23.10;73.40
66936;DHT22;53847;51.984;5.896;2022-08-19T08:33:26;23.20;73.60
66936;DHT22;53847;51.984;5.896;2022-08-19T08:35:53;23.10;73.50
66936;DHT22;53847;51.984;5.896;2022-08-19T08:38:19;23.20;73.50
66936;DHT22;53847;51.984;5.896;2022-08-19T08:40:49;23.00;72.80
66936;DHT22;53847;51.984;5.896;2022-08-19T08:43:34;23.00;73.00
66936;DHT22;53847;51.984;5.896;2022-08-19T08:48:41;23.00;73.30
66936;DHT22;53847;51.984;5.896;2022-08-19T08:51:14;23.20;73.20
66936;DHT22;53847;51.984;5.896;2022-08-19T08:53:42;23.00;72.80
66936;DHT22;53847;51.984;5.896;2022-08-19T08:56:11;23.10;72.20
66936;DHT22;53847;51.984;5.896;2022-08-19T08:58:46;23.10;72.10
66936;DHT22;53847;51.984;5.896;2022-08-19T09:01:14;23.10;71.10
66936;DHT22;53847;51.984;5.896;2022-08-19T09:03:42;23.20;71.10
66936;DHT22;53847;51.984;5.896;2022-08-19T09:16:57;23.80;70.10
66936;DHT22;53847;51.984;5.896;2022-08-19T09:19:23;23.40;70.10
66936;DHT22;53847;51.984;5.896;2022-08-19T09:21:49;23.50;70.30
66936;DHT22;53847;51.984;5.896;2022-08-19T09:24:16;23.60;70.40
66936;DHT22;53847;51.984;5.896;2022-08-19T09:26:42;23.50;70.10
66936;DHT22;53847;51.984;5.896;2022-08-19T09:29:11;23.50;69.80
66936;DHT22;53847;51.984;5.896;2022-08-19T09:31:38;23.80;70.10
66936;DHT22;53847;51.984;5.896;2022-08-19T09:34:04;23.70;70.00
66936;DHT22;53847;51.984;5.896;2022-08-19T09:36:33;24.30;69.50
66936;DHT22;53847;51.984;5.896;2022-08-19T09:39:00;24.40;69.20
66936;DHT22;53847;51.984;5.896;2022-08-19T09:41:26;24.20;68.60
66936;DHT22;53847;51.984;5.896;2022-08-19T09:43:54;23.90;68.90
66936;DHT22;53847;51.984;5.896;2022-08-19T09:46:21;24.20;69.10
66936;DHT22;53847;51.984;5.896;2022-08-19T09:48:48;24.20;68.80
66936;DHT22;53847;51.984;5.896;2022-08-19T09:51:18;24.10;68.20
66936;DHT22;53847;51.984;5.896;2022-08-19T09:53:45;24.10;67.80
66936;DHT22;53847;51.984;5.896;2022-08-19T09:56:12;24.10;68.00
66936;DHT22;53847;51.984;5.896;2022-08-19T09:58:40;24.10;67.70
66936;DHT22;53847;51.984;5.896;2022-08-19T10:01:07;23.70;67.50
66936;DHT22;53847;51.984;5.896;2022-08-19T10:03:36;24.40;67.60
66936;DHT22;53847;51.984;5.896;2022-08-19T10:06:07;24.50;67.60
66936;DHT22;53847;51.984;5.896;2022-08-19T10:08:51;24.20;67.20
66936;DHT22;53847;51.984;5.896;2022-08-19T10:11:19;23.90;66.40
66936;DHT22;53847;51.984;5.896;2022-08-19T10:13:55;24.20;66.80
66936;DHT22;53847;51.984;5.896;2022-08-19T10:16:36;23.90;66.20
66936;DHT22;53847;51.984;5.896;2022-08-19T10:19:08;24.20;65.70
66936;DHT22;53847;51.984;5.896;2022-08-19T10:21:36;24.20;65.00
66936;DHT22;53847;51.984;5.896;2022-08-19T10:24:06;24.00;65.10
66936;DHT22;53847;51.984;5.896;2022-08-19T10:26:34;24.20;65.00
66936;DHT22;53847;51.984;5.896;2022-08-19T10:29:20;24.20;65.30
66936;DHT22;53847;51.984;5.896;2022-08-19T10:31:50;24.00;65.20
66936;DHT22;53847;51.984;5.896;2022-08-19T10:34:21;24.40;65.20
66936;DHT22;53847;51.984;5.896;2022-08-19T10:36:47;24.30;64.60
66936;DHT22;53847;51.984;5.896;2022-08-19T10:39:13;24.90;64.90
66936;DHT22;53847;51.984;5.896;2022-08-19T10:41:42;24.20;65.00
66936;DHT22;53847;51.984;5.896;2022-08-19T10:44:11;24.70;64.90
66936;DHT22;53847;51.984;5.896;2022-08-19T10:46:42;24.50;64.60
66936;DHT22;53847;51.984;5.896;2022-08-19T10:49:10;24.50;64.60
66936;DHT22;53847;51.984;5.896;2022-08-19T10:51:38;24.80;64.50
66936;DHT22;53847;51.984;5.896;2022-08-19T10:54:05;24.80;64.50
66936;DHT22;53847;51.984;5.896;2022-08-19T10:56:33;24.70;64.50
66936;DHT22;53847;51.984;5.896;2022-08-19T10:59:03;24.90;64.60
66936;DHT22;53847;51.984;5.896;2022-08-19T11:01:31;24.80;64.30
66936;DHT22;53847;51.984;5.896;2022-08-19T11:03:57;24.80;64.10
66936;DHT22;53847;51.984;5.896;2022-08-19T11:06:23;24.60;64.10
66936;DHT22;53847;51.984;5.896;2022-08-19T11:08:50;24.90;63.50
66936;DHT22;53847;51.984;5.896;2022-08-19T11:11:16;24.90;63.60
66936;DHT22;53847;51.984;5.896;2022-08-19T11:13:42;24.90;63.10
66936;DHT22;53847;51.984;5.896;2022-08-19T11:16:12;24.90;62.70
66936;DHT22;53847;51.984;5.896;2022-08-19T11:18:41;24.90;62.70
66936;DHT22;53847;51.984;5.896;2022-08-19T11:21:13;25.30;62.80
66936;DHT22;53847;51.984;5.896;2022-08-19T11:23:42;24.90;62.20
66936;DHT22;53847;51.984;5.896;2022-08-19T11:26:09;24.90;62.10
66936;DHT22;53847;51.984;5.896;2022-08-19T11:28:36;25.20;62.70
66936;DHT22;53847;51.984;5.896;2022-08-19T11:31:02;25.00;62.80
66936;DHT22;53847;51.984;5.896;2022-08-19T11:33:30;25.20;62.40
66936;DHT22;53847;51.984;5.896;2022-08-19T11:35:59;25.00;62.40
66936;DHT22;53847;51.984;5.896;2022-08-19T11:38:26;25.30;62.50
66936;DHT22;53847;51.984;5.896;2022-08-19T11:40:59;25.40;62.40
66936;DHT22;53847;51.984;5.896;2022-08-19T11:43:26;25.20;61.40
66936;DHT22;53847;51.984;5.896;2022-08-19T11:45:53;25.00;61.00
66936;DHT22;53847;51.984;5.896;2022-08-19T11:48:20;25.40;61.70
66936;DHT22;53847;51.984;5.896;2022-08-19T11:50:46;25.40;61.60
66936;DHT22;53847;51.984;5.896;2022-08-19T11:53:12;25.70;62.00
66936;DHT22;53847;51.984;5.896;2022-08-19T11:55:40;25.70;61.50
66936;DHT22;53847;51.984;5.896;2022-08-19T11:58:06;25.60;60.70
66936;DHT22;53847;51.984;5.896;2022-08-19T12:00:33;25.70;60.70
66936;DHT22;53847;51.984;5.896;2022-08-19T12:02:59;25.70;60.90
66936;DHT22;53847;51.984;5.896;2022-08-19T12:05:25;25.60;60.70
66936;DHT22;53847;51.984;5.896;2022-08-19T12:07:51;25.80;60.30
66936;DHT22;53847;51.984;5.896;2022-08-19T12:10:17;25.80;60.30
66936;DHT22;53847;51.984;5.896;2022-08-19T12:12:44;25.70;60.00
66936;DHT22;53847;51.984;5.896;2022-08-19T12:15:10;25.80;60.20
66936;DHT22;53847;51.984;5.896;2022-08-19T12:17:36;25.90;60.60
66936;DHT22;53847;51.984;5.896;2022-08-19T12:20:03;25.90;60.20
66936;DHT22;53847;51.984;5.896;2022-08-19T12:22:30;26.00;60.20
66936;DHT22;53847;51.984;5.896;2022-08-19T12:24:56;25.80;60.20
66936;DHT22;53847;51.984;5.896;2022-08-19T12:27:24;26.30;60.20
66936;DHT22;53847;51.984;5.896;2022-08-19T12:29:50;26.20;60.20
66936;DHT22;53847;51.984;5.896;2022-08-19T12:32:16;26.30;60.20
66936;DHT22;53847;51.984;5.896;2022-08-19T12:34:43;26.40;60.40
66936;DHT22;53847;51.984;5.896;2022-08-19T12:37:09;26.20;59.80
66936;DHT22;53847;51.984;5.896;2022-08-19T12:39:40;26.50;60.10
66936;DHT22;53847;51.984;5.896;2022-08-19T12:42:08;26.70;59.90
66936;DHT22;53847;51.984;5.896;2022-08-19T12:44:35;26.60;59.60
66936;DHT22;53847;51.984;5.896;2022-08-19T12:47:01;26.60;59.70
66936;DHT22;53847;51.984;5.896;2022-08-19T12:49:31;26.60;59.40
66936;DHT22;53847;51.984;5.896;2022-08-19T12:51:58;26.60;59.30
66936;DHT22;53847;51.984;5.896;2022-08-19T12:54:24;26.70;59.40
66936;DHT22;53847;51.984;5.896;2022-08-19T12:56:50;26.40;59.30
66936;DHT22;53847;51.984;5.896;2022-08-19T12:59:16;26.80;59.60
66936;DHT22;53847;51.984;5.896;2022-08-19T13:01:43;26.80;59.60
66936;DHT22;53847;51.984;5.896;2022-08-19T13:04:09;26.90;59.50
66936;DHT22;53847;51.984;5.896;2022-08-19T13:06:36;27.00;59.40
66936;DHT22;53847;51.984;5.896;2022-08-19T13:09:03;27.00;59.40
66936;DHT22;53847;51.984;5.896;2022-08-19T13:11:30;27.00;59.30
66936;DHT22;53847;51.984;5.896;2022-08-19T13:13:56;27.10;59.10
66936;DHT22;53847;51.984;5.896;2022-08-19T13:16:22;27.40;59.10
66936;DHT22;53847;51.984;5.896;2022-08-19T13:18:49;27.50;58.80
66936;DHT22;53847;51.984;5.896;2022-08-19T13:21:15;27.20;58.70
66936;DHT22;53847;51.984;5.896;2022-08-19T13:23:41;27.20;58.60
66936;DHT22;53847;51.984;5.896;2022-08-19T13:26:09;27.30;58.70
66936;DHT22;53847;51.984;5.896;2022-08-19T13:28:35;27.00;58.60
66936;DHT22;53847;51.984;5.896;2022-08-19T13:31:01;27.20;58.90
66936;DHT22;53847;51.984;5.896;2022-08-19T13:33:27;27.70;59.00
66936;DHT22;53847;51.984;5.896;2022-08-19T13:35:57;27.40;58.20
66936;DHT22;53847;51.984;5.896;2022-08-19T13:38:25;27.40;58.00
66936;DHT22;53847;51.984;5.896;2022-08-19T13:40:52;27.40;57.80
66936;DHT22;53847;51.984;5.896;2022-08-19T13:43:20;27.50;58.00
66936;DHT22;53847;51.984;5.896;2022-08-19T13:45:46;27.30;57.60
66936;DHT22;53847;51.984;5.896;2022-08-19T13:48:12;27.40;57.60
66936;DHT22;53847;51.984;5.896;2022-08-19T13:50:41;27.80;57.10
66936;DHT22;53847;51.984;5.896;2022-08-19T13:53:09;27.80;57.00
66936;DHT22;53847;51.984;5.896;2022-08-19T13:55:40;27.80;56.80
66936;DHT22;53847;51.984;5.896;2022-08-19T13:58:07;27.70;56.80
66936;DHT22;53847;51.984;5.896;2022-08-19T14:00:37;28.00;57.30
66936;DHT22;53847;51.984;5.896;2022-08-19T14:03:04;28.00;56.90
66936;DHT22;53847;51.984;5.896;2022-08-19T14:05:37;28.10;57.00
66936;DHT22;53847;51.984;5.896;2022-08-19T14:08:09;28.50;56.70
66936;DHT22;53847;51.984;5.896;2022-08-19T14:10:37;28.40;56.80
66936;DHT22;53847;51.984;5.896;2022-08-19T14:13:03;28.10;56.60
66936;DHT22;53847;51.984;5.896;2022-08-19T14:15:31;28.30;56.90
66936;DHT22;53847;51.984;5.896;2022-08-19T14:17:57;28.10;56.80
66936;DHT22;53847;51.984;5.896;2022-08-19T14:20:23;27.90;56.90
66936;DHT22;53847;51.984;5.896;2022-08-19T14:22:49;27.90;57.20
66936;DHT22;53847;51.984;5.896;2022-08-19T14:25:19;27.60;57.20
66936;DHT22;53847;51.984;5.896;2022-08-19T14:27:46;27.80;57.60
66936;DHT22;53847;51.984;5.896;2022-08-19T14:30:15;28.00;57.90
66936;DHT22;53847;51.984;5.896;2022-08-19T14:32:41;27.50;57.60
66936;DHT22;53847;51.984;5.896;2022-08-19T14:35:08;27.80;57.90
66936;DHT22;53847;51.984;5.896;2022-08-19T14:37:35;27.70;57.90
66936;DHT22;53847;51.984;5.896;2022-08-19T14:40:03;27.80;58.20
66936;DHT22;53847;51.984;5.896;2022-08-19T14:42:29;27.70;58.00
66936;DHT22;53847;51.984;5.896;2022-08-19T14:44:59;27.70;58.00
66936;DHT22;53847;51.984;5.896;2022-08-19T14:47:26;27.40;57.90
66936;DHT22;53847;51.984;5.896;2022-08-19T14:49:53;27.50;58.00
66936;DHT22;53847;51.984;5.896;2022-08-19T14:52:19;27.50;58.00
66936;DHT22;53847;51.984;5.896;2022-08-19T14:54:46;27.50;58.10
66936;DHT22;53847;51.984;5.896;2022-08-19T14:57:13;27.30;58.10
66936;DHT22;53847;51.984;5.896;2022-08-19T14:59:39;27.20;58.30
66936;DHT22;53847;51.984;5.896;2022-08-19T15:02:06;27.20;58.60
66936;DHT22;53847;51.984;5.896;2022-08-19T15:04:35;26.90;58.60
66936;DHT22;53847;51.984;5.896;2022-08-19T15:07:06;27.20;58.90
66936;DHT22;53847;51.984;5.896;2022-08-19T15:09:33;27.20;59.10
66936;DHT22;53847;51.984;5.896;2022-08-19T15:11:59;27.00;58.90
66936;DHT22;53847;51.984;5.896;2022-08-19T15:14:27;27.00;59.00
66936;DHT22;53847;51.984;5.896;2022-08-19T15:16:56;26.90;59.10
66936;DHT22;53847;51.984;5.896;2022-08-19T15:19:24;26.80;59.20
66936;DHT22;53847;51.984;5.896;2022-08-19T15:21:57;26.70;59.50
66936;DHT22;53847;51.984;5.896;2022-08-19T15:24:23;26.60;60.10
66936;DHT22;53847;51.984;5.896;2022-08-19T15:26:49;26.40;61.10
66936;DHT22;53847;51.984;5.896;2022-08-19T15:29:15;26.20;62.30
66936;DHT22;53847;51.984;5.896;2022-08-19T15:31:42;26.40;62.70
66936;DHT22;53847;51.984;5.896;2022-08-19T15:34:08;26.20;62.50
66936;DHT22;53847;51.984;5.896;2022-08-19T15:36:35;26.20;62.60
66936;DHT22;53847;51.984;5.896;2022-08-19T15:39:02;26.20;62.30
66936;DHT22;53847;51.984;5.896;2022-08-19T15:41:30;26.10;62.20
66936;DHT22;53847;51.984;5.896;2022-08-19T15:44:05;26.00;62.20
66936;DHT22;53847;51.984;5.896;2022-08-19T15:46:33;25.80;62.30
66936;DHT22;53847;51.984;5.896;2022-08-19T15:49:00;26.20;62.70